sensor_id;sensor_type;location;lat;lon;timestamp;P1;durP1;ratioP1;P2;durP2;ratioP2
55254;SDS011;41118;44.634;11.182;2022-11-20T00:02:24;17.33;;;7.00;;
55254;SDS011;41118;44.634;11.182;2022-11-20T00:04:50;22.27;;;6.60;;
55254;SDS011;41118;44.634;11.182;2022-11-20T00:07:16;17.42;;;7.03;;
55254;SDS011;41118;44.634;11.182;2022-11-20T00:09:42;20.45;;;10.73;;
55254;SDS011;41118;44.634;11.182;2022-11-20T00:12:09;22.25;;;10.00;;
55254;SDS011;41118;44.634;11.182;2022-11-20T00:14:35;14.73;;;6.18;;
55254;SDS011;41118;44.634;11.182;2022-11-20T00:17:01;19.58;;;8.32;;
55254;SDS011;41118;44.634;11.182;2022-11-20T00:19:27;17.88;;;5.75;;
55254;SDS011;41118;44.634;11.182;2022-11-20T00:21:54;17.70;;;6.78;;
55254;SDS011;41118;44.634;11.182;2022-11-20T00:24:20;17.70;;;7.85;;
55254;SDS011;41118;44.634;11.182;2022-11-20T00:26:47;19.50;;;7.82;;
55254;SDS011;41118;44.634;11.182;2022-11-20T00:29:13;13.73;;;6.63;;
55254;SDS011;41118;44.634;11.182;2022-11-20T00:31:39;15.48;;;7.40;;
55254;SDS011;41118;44.634;11.182;2022-11-20T00:34:05;21.27;;;7.82;;
55254;SDS011;41118;44.634;11.182;2022-11-20T00:36:32;13.90;;;5.43;;
55254;SDS011;41118;44.634;11.182;2022-11-20T00:38:58;21.65;;;7.43;;
55254;SDS011;41118;44.634;11.182;2022-11-20T00:41:25;17.02;;;6.55;;
55254;SDS011;41118;44.634;11.182;2022-11-20T00:43:52;19.40;;;5.93;;
55254;SDS011;41118;44.634;11.182;2022-11-20T00:46:19;14.35;;;4.68;;
55254;SDS011;41118;44.634;11.182;2022-11-20T00:48:46;25.75;;;7.18;;
55254;SDS011;41118;44.634;11.182;2022-11-20T00:51:14;18.35;;;7.05;;
55254;SDS011;41118;44.634;11.182;2022-11-20T00:53:40;20.50;;;7.60;;
55254;SDS011;41118;44.634;11.182;2022-11-20T00:56:07;15.10;;;6.38;;
55254;SDS011;41118;44.634;11.182;2022-11-20T00:58:34;14.05;;;5.97;;
55254;SDS011;41118;44.634;11.182;2022-11-20T01:01:14;18.55;;;7.03;;
55254;SDS011;41118;44.634;11.182;2022-11-20T01:03:41;19.45;;;7.25;;
55254;SDS011;41118;44.634;11.182;2022-11-20T01:06:10;21.33;;;9.23;;
55254;SDS011;41118;44.634;11.182;2022-11-20T01:08:37;20.67;;;9.07;;
55254;SDS011;41118;44.634;11.182;2022-11-20T01:11:05;23.35;;;10.45;;
55254;SDS011;41118;44.634;11.182;2022-11-20T01:13:32;20.10;;;9.30;;
55254;SDS011;41118;44.634;11.182;2022-11-20T01:16:12;20.02;;;6.72;;
55254;SDS011;41118;44.634;11.182;2022-11-20T01:18:40;21.25;;;8.98;;
55254;SDS011;41118;44.634;11.182;2022-11-20T01:21:07;13.18;;;6.97;;
55254;SDS011;41118;44.634;11.182;2022-11-20T01:23:35;16.58;;;6.43;;
55254;SDS011;41118;44.634;11.182;2022-11-20T01:26:02;19.30;;;6.38;;
55254;SDS011;41118;44.634;11.182;2022-11-20T01:28:29;18.15;;;7.55;;
55254;SDS011;41118;44.634;11.182;2022-11-20T01:30:55;15.07;;;5.22;;
55254;SDS011;41118;44.634;11.182;2022-11-20T01:33:21;22.58;;;6.22;;
55254;SDS011;41118;44.634;11.182;2022-11-20T01:35:47;17.25;;;7.07;;
55254;SDS011;41118;44.634;11.182;2022-11-20T01:38:14;19.00;;;5.30;;
55254;SDS011;41118;44.634;11.182;2022-11-20T01:40:40;16.60;;;5.53;;
55254;SDS011;41118;44.634;11.182;2022-11-20T01:43:14;18.88;;;7.57;;
55254;SDS011;41118;44.634;11.182;2022-11-20T01:48:15;17.83;;;6.88;;
55254;SDS011;41118;44.634;11.182;2022-11-20T01:50:41;14.82;;;5.43;;
55254;SDS011;41118;44.634;11.182;2022-11-20T01:53:09;24.67;;;7.53;;
55254;SDS011;41118;44.634;11.182;2022-11-20T01:55:41;10.73;;;4.07;;
55254;SDS011;41118;44.634;11.182;2022-11-20T01:58:08;15.95;;;6.60;;
55254;SDS011;41118;44.634;11.182;2022-11-20T02:00:34;13.73;;;4.85;;
55254;SDS011;41118;44.634;11.182;2022-11-20T02:03:05;13.63;;;5.93;;
55254;SDS011;41118;44.634;11.182;2022-11-20T02:05:34;18.85;;;8.18;;
55254;SDS011;41118;44.634;11.182;2022-11-20T02:08:02;13.13;;;5.03;;
55254;SDS011;41118;44.634;11.182;2022-11-20T02:10:28;16.60;;;5.82;;
55254;SDS011;41118;44.634;11.182;2022-11-20T02:12:55;13.50;;;4.68;;
55254;SDS011;41118;44.634;11.182;2022-11-20T02:15:40;14.50;;;6.82;;
55254;SDS011;41118;44.634;11.182;2022-11-20T02:18:06;16.50;;;5.70;;
55254;SDS011;41118;44.634;11.182;2022-11-20T02:20:33;18.15;;;5.90;;
55254;SDS011;41118;44.634;11.182;2022-11-20T02:23:01;13.50;;;4.85;;
55254;SDS011;41118;44.634;11.182;2022-11-20T02:25:30;15.68;;;5.95;;
55254;SDS011;41118;44.634;11.182;2022-11-20T02:27:58;16.88;;;5.72;;
55254;SDS011;41118;44.634;11.182;2022-11-20T02:30:24;15.73;;;5.72;;
55254;SDS011;41118;44.634;11.182;2022-11-20T02:32:50;22.92;;;6.22;;
55254;SDS011;41118;44.634;11.182;2022-11-20T02:37:47;15.20;;;6.03;;
55254;SDS011;41118;44.634;11.182;2022-11-20T02:40:14;16.98;;;6.88;;
55254;SDS011;41118;44.634;11.182;2022-11-20T02:42:40;10.43;;;4.65;;
55254;SDS011;41118;44.634;11.182;2022-11-20T02:45:07;17.80;;;5.10;;
55254;SDS011;41118;44.634;11.182;2022-11-20T02:47:33;18.35;;;5.47;;
55254;SDS011;41118;44.634;11.182;2022-11-20T02:49:59;19.48;;;7.30;;
55254;SDS011;41118;44.634;11.182;2022-11-20T02:52:26;11.52;;;5.15;;
55254;SDS011;41118;44.634;11.182;2022-11-20T02:54:52;15.90;;;4.93;;
55254;SDS011;41118;44.634;11.182;2022-11-20T02:57:19;18.25;;;6.97;;
55254;SDS011;41118;44.634;11.182;2022-11-20T02:59:45;16.60;;;6.60;;
55254;SDS011;41118;44.634;11.182;2022-11-20T03:02:12;15.70;;;5.60;;
55254;SDS011;41118;44.634;11.182;2022-11-20T03:04:38;12.73;;;4.25;;
55254;SDS011;41118;44.634;11.182;2022-11-20T03:07:04;12.77;;;4.53;;
55254;SDS011;41118;44.634;11.182;2022-11-20T03:09:31;12.45;;;4.88;;
55254;SDS011;41118;44.634;11.182;2022-11-20T03:11:57;19.58;;;6.28;;
55254;SDS011;41118;44.634;11.182;2022-11-20T03:14:23;11.38;;;3.83;;
55254;SDS011;41118;44.634;11.182;2022-11-20T03:16:49;13.05;;;4.72;;
55254;SDS011;41118;44.634;11.182;2022-11-20T03:19:15;16.63;;;5.60;;
55254;SDS011;41118;44.634;11.182;2022-11-20T03:21:41;15.27;;;5.63;;
55254;SDS011;41118;44.634;11.182;2022-11-20T03:24:08;14.55;;;4.30;;
55254;SDS011;41118;44.634;11.182;2022-11-20T03:26:34;25.52;;;8.15;;
55254;SDS011;41118;44.634;11.182;2022-11-20T03:29:01;18.35;;;7.00;;
55254;SDS011;41118;44.634;11.182;2022-11-20T03:31:31;20.92;;;7.85;;
55254;SDS011;41118;44.634;11.182;2022-11-20T03:33:58;22.13;;;7.03;;
55254;SDS011;41118;44.634;11.182;2022-11-20T03:36:25;23.05;;;7.60;;
55254;SDS011;41118;44.634;11.182;2022-11-20T03:38:52;20.10;;;6.55;;
55254;SDS011;41118;44.634;11.182;2022-11-20T03:41:22;18.60;;;6.90;;
55254;SDS011;41118;44.634;11.182;2022-11-20T03:43:50;17.65;;;6.55;;
55254;SDS011;41118;44.634;11.182;2022-11-20T03:46:17;16.38;;;5.13;;
55254;SDS011;41118;44.634;11.182;2022-11-20T03:48:43;23.98;;;8.43;;
55254;SDS011;41118;44.634;11.182;2022-11-20T03:51:13;22.63;;;6.93;;
55254;SDS011;41118;44.634;11.182;2022-11-20T03:53:40;23.20;;;6.75;;
55254;SDS011;41118;44.634;11.182;2022-11-20T03:56:08;13.68;;;5.15;;
55254;SDS011;41118;44.634;11.182;2022-11-20T03:58:35;21.52;;;8.00;;
55254;SDS011;41118;44.634;11.182;2022-11-20T04:01:11;18.73;;;6.32;;
55254;SDS011;41118;44.634;11.182;2022-11-20T04:03:38;16.55;;;7.30;;
55254;SDS011;41118;44.634;11.182;2022-11-20T04:06:05;20.60;;;7.97;;
55254;SDS011;41118;44.634;11.182;2022-11-20T04:08:31;15.95;;;7.03;;
55254;SDS011;41118;44.634;11.182;2022-11-20T04:11:07;23.13;;;7.90;;
55254;SDS011;41118;44.634;11.182;2022-11-20T04:13:34;18.02;;;8.85;;
55254;SDS011;41118;44.634;11.182;2022-11-20T04:16:00;22.48;;;8.82;;
55254;SDS011;41118;44.634;11.182;2022-11-20T04:18:26;21.60;;;7.63;;
55254;SDS011;41118;44.634;11.182;2022-11-20T04:20:52;27.15;;;8.95;;
55254;SDS011;41118;44.634;11.182;2022-11-20T04:23:19;28.58;;;10.13;;
55254;SDS011;41118;44.634;11.182;2022-11-20T04:25:45;23.88;;;7.93;;
55254;SDS011;41118;44.634;11.182;2022-11-20T04:28:12;19.08;;;8.30;;
55254;SDS011;41118;44.634;11.182;2022-11-20T04:30:38;18.52;;;7.10;;
55254;SDS011;41118;44.634;11.182;2022-11-20T04:33:04;20.85;;;8.80;;
55254;SDS011;41118;44.634;11.182;2022-11-20T04:35:33;26.60;;;9.48;;
55254;SDS011;41118;44.634;11.182;2022-11-20T04:37:59;17.98;;;7.65;;
55254;SDS011;41118;44.634;11.182;2022-11-20T04:40:26;19.17;;;6.72;;
55254;SDS011;41118;44.634;11.182;2022-11-20T04:42:52;19.52;;;7.85;;
55254;SDS011;41118;44.634;11.182;2022-11-20T04:45:18;22.58;;;8.25;;
55254;SDS011;41118;44.634;11.182;2022-11-20T04:47:44;16.45;;;7.03;;
55254;SDS011;41118;44.634;11.182;2022-11-20T04:50:10;21.60;;;8.45;;
55254;SDS011;41118;44.634;11.182;2022-11-20T04:52:36;19.45;;;7.53;;
55254;SDS011;41118;44.634;11.182;2022-11-20T04:55:03;18.42;;;7.53;;
55254;SDS011;41118;44.634;11.182;2022-11-20T04:57:30;20.70;;;9.00;;
55254;SDS011;41118;44.634;11.182;2022-11-20T04:59:56;21.10;;;8.88;;
55254;SDS011;41118;44.634;11.182;2022-11-20T05:02:22;22.48;;;7.47;;
55254;SDS011;41118;44.634;11.182;2022-11-20T05:04:49;20.25;;;7.85;;
55254;SDS011;41118;44.634;11.182;2022-11-20T05:07:16;18.73;;;6.50;;
55254;SDS011;41118;44.634;11.182;2022-11-20T05:09:43;23.48;;;9.30;;
55254;SDS011;41118;44.634;11.182;2022-11-20T05:12:09;26.08;;;8.25;;
55254;SDS011;41118;44.634;11.182;2022-11-20T05:14:35;21.38;;;7.22;;
55254;SDS011;41118;44.634;11.182;2022-11-20T05:17:02;24.83;;;9.30;;
55254;SDS011;41118;44.634;11.182;2022-11-20T05:19:28;25.52;;;9.73;;
55254;SDS011;41118;44.634;11.182;2022-11-20T05:21:54;17.65;;;7.63;;
55254;SDS011;41118;44.634;11.182;2022-11-20T05:24:20;19.58;;;7.13;;
55254;SDS011;41118;44.634;11.182;2022-11-20T05:26:46;15.57;;;7.93;;
55254;SDS011;41118;44.634;11.182;2022-11-20T05:29:12;29.88;;;7.95;;
55254;SDS011;41118;44.634;11.182;2022-11-20T05:31:42;17.33;;;6.75;;
55254;SDS011;41118;44.634;11.182;2022-11-20T05:34:08;23.08;;;8.55;;
55254;SDS011;41118;44.634;11.182;2022-11-20T05:36:34;17.30;;;6.72;;
55254;SDS011;41118;44.634;11.182;2022-11-20T05:39:00;23.40;;;10.32;;
55254;SDS011;41118;44.634;11.182;2022-11-20T05:41:26;21.95;;;9.93;;
55254;SDS011;41118;44.634;11.182;2022-11-20T05:43:52;21.55;;;9.00;;
55254;SDS011;41118;44.634;11.182;2022-11-20T05:46:20;28.02;;;10.10;;
55254;SDS011;41118;44.634;11.182;2022-11-20T05:48:46;22.92;;;8.18;;
55254;SDS011;41118;44.634;11.182;2022-11-20T05:51:14;17.52;;;9.02;;
55254;SDS011;41118;44.634;11.182;2022-11-20T05:53:41;16.80;;;8.45;;
55254;SDS011;41118;44.634;11.182;2022-11-20T05:56:09;25.35;;;9.07;;
55254;SDS011;41118;44.634;11.182;2022-11-20T05:58:35;17.80;;;7.03;;
55254;SDS011;41118;44.634;11.182;2022-11-20T06:01:05;18.67;;;6.85;;
55254;SDS011;41118;44.634;11.182;2022-11-20T06:03:31;22.65;;;7.28;;
55254;SDS011;41118;44.634;11.182;2022-11-20T06:06:02;17.95;;;8.15;;
55254;SDS011;41118;44.634;11.182;2022-11-20T06:08:28;18.15;;;7.90;;
55254;SDS011;41118;44.634;11.182;2022-11-20T06:10:54;17.05;;;5.97;;
55254;SDS011;41118;44.634;11.182;2022-11-20T06:13:20;23.02;;;8.43;;
55254;SDS011;41118;44.634;11.182;2022-11-20T06:15:50;23.27;;;7.88;;
55254;SDS011;41118;44.634;11.182;2022-11-20T06:18:16;23.30;;;9.38;;
55254;SDS011;41118;44.634;11.182;2022-11-20T06:20:43;22.85;;;9.20;;
55254;SDS011;41118;44.634;11.182;2022-11-20T06:23:09;19.33;;;7.82;;
55254;SDS011;41118;44.634;11.182;2022-11-20T06:25:38;23.58;;;8.60;;
55254;SDS011;41118;44.634;11.182;2022-11-20T06:28:05;20.52;;;6.60;;
55254;SDS011;41118;44.634;11.182;2022-11-20T06:30:31;17.85;;;7.40;;
55254;SDS011;41118;44.634;11.182;2022-11-20T06:32:57;19.92;;;7.68;;
55254;SDS011;41118;44.634;11.182;2022-11-20T06:35:24;17.55;;;6.53;;
55254;SDS011;41118;44.634;11.182;2022-11-20T06:37:50;18.15;;;8.10;;
55254;SDS011;41118;44.634;11.182;2022-11-20T06:40:17;19.08;;;6.10;;
55254;SDS011;41118;44.634;11.182;2022-11-20T06:42:43;23.02;;;6.78;;
55254;SDS011;41118;44.634;11.182;2022-11-20T06:45:11;20.85;;;8.18;;
55254;SDS011;41118;44.634;11.182;2022-11-20T06:47:38;16.95;;;7.05;;
55254;SDS011;41118;44.634;11.182;2022-11-20T06:50:04;22.85;;;7.60;;
55254;SDS011;41118;44.634;11.182;2022-11-20T06:52:30;23.65;;;7.15;;
55254;SDS011;41118;44.634;11.182;2022-11-20T06:54:56;16.15;;;6.93;;
55254;SDS011;41118;44.634;11.182;2022-11-20T06:57:22;28.48;;;7.38;;
55254;SDS011;41118;44.634;11.182;2022-11-20T06:59:48;11.85;;;5.35;;
55254;SDS011;41118;44.634;11.182;2022-11-20T07:02:15;20.95;;;7.03;;
55254;SDS011;41118;44.634;11.182;2022-11-20T07:04:41;17.67;;;6.10;;
55254;SDS011;41118;44.634;11.182;2022-11-20T07:07:08;15.10;;;5.55;;
55254;SDS011;41118;44.634;11.182;2022-11-20T07:09:34;14.70;;;7.75;;
55254;SDS011;41118;44.634;11.182;2022-11-20T07:12:01;13.18;;;5.63;;
55254;SDS011;41118;44.634;11.182;2022-11-20T07:14:27;10.50;;;4.93;;
55254;SDS011;41118;44.634;11.182;2022-11-20T07:16:53;12.88;;;4.75;;
55254;SDS011;41118;44.634;11.182;2022-11-20T07:19:20;15.50;;;5.35;;
55254;SDS011;41118;44.634;11.182;2022-11-20T07:21:46;14.25;;;5.60;;
55254;SDS011;41118;44.634;11.182;2022-11-20T07:24:12;11.55;;;5.18;;
55254;SDS011;41118;44.634;11.182;2022-11-20T07:26:38;10.35;;;3.90;;
55254;SDS011;41118;44.634;11.182;2022-11-20T07:29:04;15.13;;;6.05;;
55254;SDS011;41118;44.634;11.182;2022-11-20T07:31:31;11.48;;;4.97;;
55254;SDS011;41118;44.634;11.182;2022-11-20T07:33:57;21.33;;;7.40;;
55254;SDS011;41118;44.634;11.182;2022-11-20T07:36:24;15.52;;;6.05;;
55254;SDS011;41118;44.634;11.182;2022-11-20T07:38:50;19.75;;;9.98;;
55254;SDS011;41118;44.634;11.182;2022-11-20T07:41:17;19.13;;;8.45;;
55254;SDS011;41118;44.634;11.182;2022-11-20T07:43:43;16.20;;;6.82;;
55254;SDS011;41118;44.634;11.182;2022-11-20T07:46:09;20.70;;;8.48;;
55254;SDS011;41118;44.634;11.182;2022-11-20T07:48:35;18.85;;;7.80;;
55254;SDS011;41118;44.634;11.182;2022-11-20T07:51:01;15.52;;;5.32;;
55254;SDS011;41118;44.634;11.182;2022-11-20T07:53:27;17.88;;;8.07;;
55254;SDS011;41118;44.634;11.182;2022-11-20T07:55:53;19.90;;;8.52;;
55254;SDS011;41118;44.634;11.182;2022-11-20T07:58:20;17.42;;;6.75;;
55254;SDS011;41118;44.634;11.182;2022-11-20T08:00:46;23.23;;;9.50;;
55254;SDS011;41118;44.634;11.182;2022-11-20T08:03:12;20.17;;;7.50;;
55254;SDS011;41118;44.634;11.182;2022-11-20T08:05:38;25.88;;;8.55;;
55254;SDS011;41118;44.634;11.182;2022-11-20T08:08:04;20.23;;;8.10;;
55254;SDS011;41118;44.634;11.182;2022-11-20T08:10:32;24.02;;;8.18;;
55254;SDS011;41118;44.634;11.182;2022-11-20T08:12:58;28.98;;;9.50;;
55254;SDS011;41118;44.634;11.182;2022-11-20T08:15:47;17.00;;;8.98;;
55254;SDS011;41118;44.634;11.182;2022-11-20T08:18:13;21.80;;;8.38;;
55254;SDS011;41118;44.634;11.182;2022-11-20T08:20:39;16.65;;;6.40;;
55254;SDS011;41118;44.634;11.182;2022-11-20T08:23:06;19.38;;;8.75;;
55254;SDS011;41118;44.634;11.182;2022-11-20T08:25:33;21.23;;;8.02;;
55254;SDS011;41118;44.634;11.182;2022-11-20T08:28:00;19.77;;;8.98;;
55254;SDS011;41118;44.634;11.182;2022-11-20T08:30:27;18.70;;;8.57;;
55254;SDS011;41118;44.634;11.182;2022-11-20T08:32:53;21.52;;;7.78;;
55254;SDS011;41118;44.634;11.182;2022-11-20T08:35:21;23.90;;;9.05;;
55254;SDS011;41118;44.634;11.182;2022-11-20T08:37:47;29.10;;;11.73;;
55254;SDS011;41118;44.634;11.182;2022-11-20T08:40:14;34.30;;;15.75;;
55254;SDS011;41118;44.634;11.182;2022-11-20T08:42:47;32.83;;;15.50;;
55254;SDS011;41118;44.634;11.182;2022-11-20T08:45:14;33.60;;;13.52;;
55254;SDS011;41118;44.634;11.182;2022-11-20T08:47:40;27.35;;;12.82;;
55254;SDS011;41118;44.634;11.182;2022-11-20T08:50:07;40.22;;;14.57;;
55254;SDS011;41118;44.634;11.182;2022-11-20T08:52:33;36.17;;;15.48;;
55254;SDS011;41118;44.634;11.182;2022-11-20T08:55:00;24.80;;;12.57;;
55254;SDS011;41118;44.634;11.182;2022-11-20T08:57:26;34.58;;;14.52;;
55254;SDS011;41118;44.634;11.182;2022-11-20T08:59:52;51.20;;;19.58;;
55254;SDS011;41118;44.634;11.182;2022-11-20T09:02:18;33.60;;;14.77;;
55254;SDS011;41118;44.634;11.182;2022-11-20T09:04:44;37.22;;;13.45;;
55254;SDS011;41118;44.634;11.182;2022-11-20T09:07:10;40.33;;;15.13;;
55254;SDS011;41118;44.634;11.182;2022-11-20T09:09:37;27.98;;;14.70;;
55254;SDS011;41118;44.634;11.182;2022-11-20T09:12:03;32.25;;;14.48;;
55254;SDS011;41118;44.634;11.182;2022-11-20T09:14:29;34.03;;;16.05;;
55254;SDS011;41118;44.634;11.182;2022-11-20T09:16:55;44.30;;;17.10;;
55254;SDS011;41118;44.634;11.182;2022-11-20T09:19:23;34.03;;;16.05;;
55254;SDS011;41118;44.634;11.182;2022-11-20T09:21:49;44.33;;;18.10;;
55254;SDS011;41118;44.634;11.182;2022-11-20T09:24:16;43.60;;;20.00;;
55254;SDS011;41118;44.634;11.182;2022-11-20T09:26:42;32.92;;;15.75;;
55254;SDS011;41118;44.634;11.182;2022-11-20T09:29:08;32.00;;;14.23;;
55254;SDS011;41118;44.634;11.182;2022-11-20T09:31:35;40.50;;;16.50;;
55254;SDS011;41118;44.634;11.182;2022-11-20T09:34:01;41.00;;;17.38;;
55254;SDS011;41118;44.634;11.182;2022-11-20T09:36:28;36.70;;;16.95;;
55254;SDS011;41118;44.634;11.182;2022-11-20T09:38:54;35.40;;;19.13;;
55254;SDS011;41118;44.634;11.182;2022-11-20T09:46:45;57.35;;;27.25;;
55254;SDS011;41118;44.634;11.182;2022-11-20T09:49:20;48.75;;;19.33;;
55254;SDS011;41118;44.634;11.182;2022-11-20T09:52:08;64.28;;;26.42;;
55254;SDS011;41118;44.634;11.182;2022-11-20T09:54:37;55.55;;;20.42;;
55254;SDS011;41118;44.634;11.182;2022-11-20T09:57:14;46.58;;;20.40;;
55254;SDS011;41118;44.634;11.182;2022-11-20T09:59:44;42.53;;;21.40;;
55254;SDS011;41118;44.634;11.182;2022-11-20T10:02:16;48.78;;;22.70;;
55254;SDS011;41118;44.634;11.182;2022-11-20T10:04:44;51.72;;;24.75;;
55254;SDS011;41118;44.634;11.182;2022-11-20T10:07:15;47.63;;;20.10;;
55254;SDS011;41118;44.634;11.182;2022-11-20T10:09:46;54.10;;;22.40;;
55254;SDS011;41118;44.634;11.182;2022-11-20T10:14:49;37.20;;;16.02;;
55254;SDS011;41118;44.634;11.182;2022-11-20T10:32:33;31.52;;;14.80;;
55254;SDS011;41118;44.634;11.182;2022-11-20T10:35:14;31.27;;;12.88;;
55254;SDS011;41118;44.634;11.182;2022-11-20T10:37:42;30.23;;;10.25;;
55254;SDS011;41118;44.634;11.182;2022-11-20T10:42:51;29.98;;;11.52;;
55254;SDS011;41118;44.634;11.182;2022-11-20T10:47:54;31.33;;;13.10;;
55254;SDS011;41118;44.634;11.182;2022-11-20T10:50:21;28.77;;;12.77;;
55254;SDS011;41118;44.634;11.182;2022-11-20T10:57:54;40.15;;;16.02;;
55254;SDS011;41118;44.634;11.182;2022-11-20T11:00:20;31.63;;;15.57;;
55254;SDS011;41118;44.634;11.182;2022-11-20T11:02:48;29.15;;;13.98;;
55254;SDS011;41118;44.634;11.182;2022-11-20T11:07:47;39.72;;;14.38;;
55254;SDS011;41118;44.634;11.182;2022-11-20T11:12:52;38.15;;;15.38;;
55254;SDS011;41118;44.634;11.182;2022-11-20T11:15:26;26.73;;;11.98;;
55254;SDS011;41118;44.634;11.182;2022-11-20T11:20:20;28.92;;;11.00;;
55254;SDS011;41118;44.634;11.182;2022-11-20T11:22:48;25.15;;;12.18;;
55254;SDS011;41118;44.634;11.182;2022-11-20T11:27:47;31.77;;;10.80;;
55254;SDS011;41118;44.634;11.182;2022-11-20T11:30:14;28.73;;;11.57;;
55254;SDS011;41118;44.634;11.182;2022-11-20T11:32:41;34.60;;;13.85;;
55254;SDS011;41118;44.634;11.182;2022-11-20T11:35:18;33.90;;;16.75;;
55254;SDS011;41118;44.634;11.182;2022-11-20T11:37:45;36.38;;;16.73;;
55254;SDS011;41118;44.634;11.182;2022-11-20T11:40:12;33.95;;;16.70;;
55254;SDS011;41118;44.634;11.182;2022-11-20T11:42:42;40.03;;;19.80;;
55254;SDS011;41118;44.634;11.182;2022-11-20T11:45:11;39.60;;;20.55;;
55254;SDS011;41118;44.634;11.182;2022-11-20T11:47:44;40.67;;;19.40;;
55254;SDS011;41118;44.634;11.182;2022-11-20T11:55:12;28.83;;;11.25;;
55254;SDS011;41118;44.634;11.182;2022-11-20T11:57:46;33.28;;;12.70;;
55254;SDS011;41118;44.634;11.182;2022-11-20T12:00:14;18.90;;;7.75;;
55254;SDS011;41118;44.634;11.182;2022-11-20T12:07:41;25.23;;;7.18;;
55254;SDS011;41118;44.634;11.182;2022-11-20T12:10:50;22.30;;;8.05;;
55254;SDS011;41118;44.634;11.182;2022-11-20T12:15:42;28.73;;;12.63;;
55254;SDS011;41118;44.634;11.182;2022-11-20T12:18:17;28.55;;;13.15;;
55254;SDS011;41118;44.634;11.182;2022-11-20T12:20:45;29.27;;;12.80;;
55254;SDS011;41118;44.634;11.182;2022-11-20T12:25:47;26.10;;;11.65;;
55254;SDS011;41118;44.634;11.182;2022-11-20T12:30:50;27.23;;;12.93;;
55254;SDS011;41118;44.634;11.182;2022-11-20T12:33:26;30.33;;;13.27;;
55254;SDS011;41118;44.634;11.182;2022-11-20T12:42:05;22.92;;;9.93;;
55254;SDS011;41118;44.634;11.182;2022-11-20T12:44:38;22.65;;;9.65;;
55254;SDS011;41118;44.634;11.182;2022-11-20T12:55:11;22.95;;;10.52;;
55254;SDS011;41118;44.634;11.182;2022-11-20T12:57:50;18.38;;;9.10;;
55254;SDS011;41118;44.634;11.182;2022-11-20T13:00:20;19.73;;;9.57;;
55254;SDS011;41118;44.634;11.182;2022-11-20T13:07:55;18.35;;;4.57;;
55254;SDS011;41118;44.634;11.182;2022-11-20T13:10:36;15.73;;;5.30;;
55254;SDS011;41118;44.634;11.182;2022-11-20T13:13:08;11.07;;;2.42;;
55254;SDS011;41118;44.634;11.182;2022-11-20T13:18:08;9.63;;;1.60;;
55254;SDS011;41118;44.634;11.182;2022-11-20T13:20:35;5.50;;;0.88;;
55254;SDS011;41118;44.634;11.182;2022-11-20T13:23:01;6.38;;;1.38;;
55254;SDS011;41118;44.634;11.182;2022-11-20T13:25:31;4.63;;;0.80;;
55254;SDS011;41118;44.634;11.182;2022-11-20T13:27:59;4.50;;;1.05;;
55254;SDS011;41118;44.634;11.182;2022-11-20T13:30:27;3.15;;;0.50;;
55254;SDS011;41118;44.634;11.182;2022-11-20T13:32:57;2.42;;;0.63;;
55254;SDS011;41118;44.634;11.182;2022-11-20T13:35:30;1.90;;;0.45;;
55254;SDS011;41118;44.634;11.182;2022-11-20T13:38:12;2.80;;;0.47;;
55254;SDS011;41118;44.634;11.182;2022-11-20T13:40:49;1.48;;;0.50;;
55254;SDS011;41118;44.634;11.182;2022-11-20T13:46:04;1.80;;;0.40;;
55254;SDS011;41118;44.634;11.182;2022-11-20T13:48:38;5.45;;;1.13;;
55254;SDS011;41118;44.634;11.182;2022-11-20T13:54:02;5.18;;;0.98;;
55254;SDS011;41118;44.634;11.182;2022-11-20T14:01:49;4.65;;;0.60;;
55254;SDS011;41118;44.634;11.182;2022-11-20T14:04:17;4.10;;;1.10;;
55254;SDS011;41118;44.634;11.182;2022-11-20T14:07:02;6.57;;;0.98;;
55254;SDS011;41118;44.634;11.182;2022-11-20T14:09:31;5.22;;;0.60;;
55254;SDS011;41118;44.634;11.182;2022-11-20T14:11:58;7.80;;;0.50;;
55254;SDS011;41118;44.634;11.182;2022-11-20T14:14:25;2.85;;;0.63;;
55254;SDS011;41118;44.634;11.182;2022-11-20T14:16:52;5.30;;;0.60;;
55254;SDS011;41118;44.634;11.182;2022-11-20T14:22:06;4.22;;;0.50;;
55254;SDS011;41118;44.634;11.182;2022-11-20T14:24:32;4.70;;;0.88;;
55254;SDS011;41118;44.634;11.182;2022-11-20T14:26:58;6.10;;;1.17;;
55254;SDS011;41118;44.634;11.182;2022-11-20T14:29:28;3.08;;;0.70;;
55254;SDS011;41118;44.634;11.182;2022-11-20T14:31:55;7.28;;;1.38;;
55254;SDS011;41118;44.634;11.182;2022-11-20T14:34:23;3.47;;;1.40;;
55254;SDS011;41118;44.634;11.182;2022-11-20T14:36:52;5.93;;;0.60;;
55254;SDS011;41118;44.634;11.182;2022-11-20T14:39:20;4.32;;;0.70;;
55254;SDS011;41118;44.634;11.182;2022-11-20T14:41:53;2.78;;;0.50;;
55254;SDS011;41118;44.634;11.182;2022-11-20T14:44:21;6.03;;;0.75;;
55254;SDS011;41118;44.634;11.182;2022-11-20T14:46:50;4.13;;;0.70;;
55254;SDS011;41118;44.634;11.182;2022-11-20T14:49:16;5.75;;;1.52;;
55254;SDS011;41118;44.634;11.182;2022-11-20T14:51:42;6.45;;;0.50;;
55254;SDS011;41118;44.634;11.182;2022-11-20T14:54:16;5.75;;;0.73;;
55254;SDS011;41118;44.634;11.182;2022-11-20T14:57:02;6.40;;;1.40;;
55254;SDS011;41118;44.634;11.182;2022-11-20T14:59:29;3.45;;;0.57;;
55254;SDS011;41118;44.634;11.182;2022-11-20T15:04:25;11.63;;;1.25;;
55254;SDS011;41118;44.634;11.182;2022-11-20T15:06:55;3.65;;;0.50;;
55254;SDS011;41118;44.634;11.182;2022-11-20T15:09:21;12.48;;;1.50;;
55254;SDS011;41118;44.634;11.182;2022-11-20T15:11:52;6.55;;;1.38;;
55254;SDS011;41118;44.634;11.182;2022-11-20T15:14:19;3.55;;;0.75;;
55254;SDS011;41118;44.634;11.182;2022-11-20T15:16:45;4.55;;;1.05;;
55254;SDS011;41118;44.634;11.182;2022-11-20T15:19:21;4.53;;;0.75;;
55254;SDS011;41118;44.634;11.182;2022-11-20T15:21:47;9.63;;;1.15;;
55254;SDS011;41118;44.634;11.182;2022-11-20T15:24:13;9.80;;;1.23;;
55254;SDS011;41118;44.634;11.182;2022-11-20T15:26:40;5.47;;;0.70;;
55254;SDS011;41118;44.634;11.182;2022-11-20T15:29:12;17.02;;;1.00;;
55254;SDS011;41118;44.634;11.182;2022-11-20T15:31:39;7.85;;;0.77;;
55254;SDS011;41118;44.634;11.182;2022-11-20T15:34:10;4.70;;;0.65;;
55254;SDS011;41118;44.634;11.182;2022-11-20T15:36:37;6.53;;;0.60;;
55254;SDS011;41118;44.634;11.182;2022-11-20T15:39:03;7.53;;;0.75;;
55254;SDS011;41118;44.634;11.182;2022-11-20T15:41:29;6.50;;;0.80;;
55254;SDS011;41118;44.634;11.182;2022-11-20T15:43:56;6.55;;;0.93;;
55254;SDS011;41118;44.634;11.182;2022-11-20T15:46:23;8.27;;;1.58;;
55254;SDS011;41118;44.634;11.182;2022-11-20T15:48:52;6.28;;;1.05;;
55254;SDS011;41118;44.634;11.182;2022-11-20T15:51:38;8.70;;;1.85;;
55254;SDS011;41118;44.634;11.182;2022-11-20T15:54:09;7.07;;;1.70;;
55254;SDS011;41118;44.634;11.182;2022-11-20T15:56:36;6.03;;;1.58;;
55254;SDS011;41118;44.634;11.182;2022-11-20T15:59:02;10.80;;;1.40;;
55254;SDS011;41118;44.634;11.182;2022-11-20T16:01:29;10.18;;;1.63;;
55254;SDS011;41118;44.634;11.182;2022-11-20T16:03:55;9.95;;;1.60;;
55254;SDS011;41118;44.634;11.182;2022-11-20T16:06:21;9.30;;;1.38;;
55254;SDS011;41118;44.634;11.182;2022-11-20T16:08:48;5.75;;;1.63;;
55254;SDS011;41118;44.634;11.182;2022-11-20T16:11:15;7.03;;;1.83;;